Station Historical Data
Daily Summary for April 23, 2017 Units:  Metric    English   Both
« Previous Day
Next Day »
Daily Weekly Monthly Yearly Custom
  High: Low: Average:
Temperature: 17.4 °C 11.7 °C 15.3 °C
Dew Point: 16.3 °C 10.2 °C 14 °C
Humidity: 93% 89% 92%
Wind Speed: 1.6km/h 0km/h 0km/h
Wind Gust: 8km/h - -
Wind- - NW
Pressure: 1012.1 hPa 1007.3 hPa -
Precipitation: 48.51 mm    
Historical Graphs
 
 
Tabular Data for April 23, 2017
Time Temperature Dew Point Pressure Wind Wind Speed Wind Gust Humidity Rainfall Rate (Hourly) Conditions
00:00 16.7 °C 14.9 °C 1012.1 hPa Calm   1.6 km/h 89% 0.25 mm RA
00:15 16.4 °C 14.6 °C 1011.4 hPa Calm   1.6 km/h 89% 1.27 mm SCT
00:30 16.2 °C 14.5 °C 1011.4 hPa Calm   1.6 km/h 90% 0.25 mm RA
00:45 16.2 °C 14.7 °C 1011.1 hPa Calm   1.6 km/h 91% 0.51 mm SCT
01:00 16.1 °C 14.6 °C 1010.7 hPa Calm   1.6 km/h 91% 0.25 mm SCT
01:15 16.2 °C 14.8 °C 1010.4 hPa Calm   1.6 km/h 92% 0.25 mm SCT
01:30 16.2 °C 14.9 °C 1010.7 hPa Calm   1.6 km/h 92% 0.25 mm SCT
01:45 16.2 °C 14.9 °C 1010.7 hPa Calm   1.6 km/h 92% 0 mm SCT
02:00 16.2 °C 14.9 °C 1010.7 hPa Calm   1.6 km/h 92% 0 mm SCT
02:15 16.2 °C 14.9 °C 1010.4 hPa Calm   3.2 km/h 92% 0 mm SCT
02:30 16.1 °C 14.8 °C 1010.4 hPa Calm   1.6 km/h 92% 0 mm SCT
02:45 16 °C 14.7 °C 1010 hPa Calm   3.2 km/h 92% 0 mm SCT
03:00 15.9 °C 14.7 °C 1009.7 hPa Calm   1.6 km/h 92% 0 mm SCT
03:15 15.8 °C 14.6 °C 1009.7 hPa Calm   1.6 km/h 92% 0 mm SCT
03:30 15.8 °C 14.6 °C 1009.7 hPa Calm     92% 0 mm SCT
03:45 15.8 °C 14.6 °C 1009.7 hPa Calm     92% 0 mm SCT
04:00 15.8 °C 14.6 °C 1009.7 hPa Calm     92% 0 mm SCT
04:15 15.8 °C 14.6 °C 1009.7 hPa Calm     92% 0 mm SCT
04:30 15.8 °C 14.6 °C 1010 hPa Calm     92% 0 mm SCT
04:45 15.8 °C 14.6 °C 1010 hPa Calm     92% 0 mm SCT
05:00 15.8 °C 14.6 °C 1010 hPa Calm     92% 0 mm SCT
05:15 15.8 °C 14.6 °C 1009.7 hPa Calm     92% 0 mm SCT
05:30 15.8 °C 14.6 °C 1009.4 hPa Calm     92% 0 mm SCT
05:45 15.8 °C 14.6 °C 1009.4 hPa Calm     92% 0 mm SCT
06:00 15.8 °C 14.6 °C 1009.4 hPa Calm     92% 0 mm SCT
06:15 15.8 °C 14.6 °C 1009.4 hPa Calm     92% 0 mm SCT
06:30 15.8 °C 14.6 °C 1009.7 hPa Calm     92% 0 mm SCT
06:45 15.8 °C 14.6 °C 1010 hPa Calm     92% 0 mm SCT
07:00 15.8 °C 14.6 °C 1010 hPa Calm     92% 0 mm SCT
07:15 15.8 °C 14.6 °C 1010 hPa Calm     92% 0 mm SCT
07:30 15.8 °C 14.6 °C 1010 hPa Calm     92% 0 mm SCT
07:45 15.8 °C 14.6 °C 1010 hPa Calm     92% 0 mm SCT
08:00 15.8 °C 14.6 °C 1010 hPa Calm     92% 0 mm SCT
08:15 15.8 °C 14.6 °C 1010 hPa Calm     92% 0 mm SCT
08:30 15.8 °C 14.6 °C 1009.7 hPa Calm     92% 0 mm SCT
08:45 16.1 °C 14.9 °C 1010 hPa Calm   1.6 km/h 93% 0 mm SCT
09:00 16.1 °C 14.8 °C 1010 hPa Calm   3.2 km/h 92% 0.25 mm SCT
09:15 16.1 °C 14.8 °C 1010 hPa Calm   3.2 km/h 92% 0 mm SCT
09:30 16.1 °C 14.8 °C 1010 hPa Calm   3.2 km/h 92% 0 mm SCT
09:45 16.1 °C 14.8 °C 1010 hPa Calm   1.6 km/h 92% 0 mm SCT
10:00 16.1 °C 14.6 °C 1010 hPa Calm   1.6 km/h 91% 0 mm SCT
10:15 16 °C 14.6 °C 1010 hPa Calm   1.6 km/h 91% 0 mm SCT
10:30 16.1 °C 14.8 °C 1009.7 hPa Calm   1.6 km/h 92% 0 mm SCT
10:45 16.4 °C 15.1 °C 1009.7 hPa Calm   4.8 km/h 92% 0 mm SCT
11:00 16.4 °C 14.9 °C 1009.4 hPa Calm   3.2 km/h 91% 0 mm SCT
11:15 16.3 °C 14.8 °C 1009.4 hPa Calm   4.8 km/h 91% 0 mm SCT
11:30 16.3 °C 15 °C 1009.4 hPa Calm   4.8 km/h 92% 0.25 mm SCT
11:45 16.4 °C 15.1 °C 1009.4 hPa Calm   3.2 km/h 92% 0.25 mm SCT
12:00 16.5 °C 15.2 °C 1009 hPa Calm   3.2 km/h 92% 0 mm SCT
12:15 16.7 °C 15.4 °C 1008.7 hPa Calm   1.6 km/h 92% 0 mm SCT
12:30 16.8 °C 15.5 °C 1008.7 hPa Calm   1.6 km/h 92% 0 mm SCT
12:45 16.8 °C 15.6 °C 1008.7 hPa Calm   1.6 km/h 92% 0 mm SCT
13:00 17.2 °C 15.8 °C 1008.4 hPa Calm   3.2 km/h 92% 0 mm SCT
13:15 17.3 °C 16 °C 1008 hPa Calm   1.6 km/h 92% 0 mm SCT
13:30 17.3 °C 16 °C 1008 hPa Calm   1.6 km/h 92% 0 mm SCT
13:45 17.3 °C 15.9 °C 1007.7 hPa Calm   3.2 km/h 92% 0.25 mm SCT
14:00 17.3 °C 16 °C 1007.3 hPa Calm   1.6 km/h 92% 0 mm SCT
14:15 17.4 °C 16.3 °C 1007.3 hPa NW 1.6 km/h 4.8 km/h 93% 0.51 mm RA
14:30 17.2 °C 15.9 °C 1007.7 hPa Calm   3.2 km/h 92% 6.35 mm RA
14:45 16.4 °C 15.1 °C 1008 hPa Calm   3.2 km/h 92% 18.03 mm RA
15:00 15.9 °C 14.7 °C 1007.7 hPa Calm   8 km/h 92% 3.81 mm SCT
15:15 15.7 °C 14.4 °C 1007.7 hPa Calm   3.2 km/h 92% 1.52 mm RA
15:30 15.8 °C 14.7 °C 1007.7 hPa Calm   3.2 km/h 93% 2.79 mm SCT
15:45 16 °C 14.9 °C 1007.7 hPa Calm   4.8 km/h 93% 0.76 mm SCT
16:00 16 °C 14.9 °C 1007.3 hPa Calm     93% 0.51 mm SCT
16:15 16.1 °C 15 °C 1007.3 hPa Calm   1.6 km/h 93% 0.51 mm SCT
16:30 16.2 °C 15.1 °C 1007.3 hPa Calm     93% 0.51 mm SCT
16:45 16.2 °C 15.1 °C 1007.7 hPa Calm   1.6 km/h 93% 0.25 mm SCT
17:00 16 °C 14.7 °C 1008 hPa Calm   1.6 km/h 92% 0.25 mm SCT
17:15 15.8 °C 14.7 °C 1008 hPa Calm     93% 1.78 mm RA
17:30 15.8 °C 14.7 °C 1007.7 hPa Calm     93% 4.32 mm RA
17:45 16 °C 14.8 °C 1008 hPa Calm     93% 1.02 mm SCT
18:00 15.9 °C 14.8 °C 1008 hPa Calm     93% 0.25 mm SCT
18:15 16 °C 14.7 °C 1008 hPa Calm   4.8 km/h 92% 0.51 mm SCT
18:30 14.9 °C 13.4 °C 1008.4 hPa Calm   4.8 km/h 91% 0.25 mm RA
18:45 14.2 °C 12.6 °C 1008.4 hPa Calm   3.2 km/h 90% 0 mm SCT
19:00 13.7 °C 12.3 °C 1008.4 hPa Calm   3.2 km/h 91% 0 mm SCT
19:15 13.4 °C 12 °C 1008.4 hPa Calm   1.6 km/h 91% 0 mm SCT
19:30 13.1 °C 11.6 °C 1008.4 hPa Calm   3.2 km/h 91% 0 mm SCT
19:45 12.9 °C 11.7 °C 1008.7 hPa Calm   1.6 km/h 92% 0 mm SCT
20:00 12.9 °C 11.6 °C 1009 hPa Calm   1.6 km/h 92% 0 mm SCT
20:15 12.6 °C 11.3 °C 1009 hPa Calm   1.6 km/h 92% 0 mm SCT
20:30 12.4 °C 10.9 °C 1009 hPa Calm   3.2 km/h 91% 0 mm SCT
20:45 12.2 °C 10.7 °C 1009 hPa Calm   1.6 km/h 91% 0 mm SCT
21:00 12.1 °C 10.6 °C 1009.4 hPa Calm   3.2 km/h 91% 0 mm SCT
21:15 11.9 °C 10.5 °C 1009.7 hPa Calm   1.6 km/h 91% 0 mm SCT
21:30 11.9 °C 10.7 °C 1010 hPa Calm   1.6 km/h 92% 0 mm SCT
21:45 11.7 °C 10.2 °C 1010 hPa Calm     91% 0 mm SCT
22:00 11.7 °C 10.2 °C 1010 hPa Calm     91% 0 mm SCT
22:15 11.7 °C 10.2 °C 1010 hPa Calm     91% 0 mm SCT
22:30 11.7 °C 10.2 °C 1010 hPa Calm     91% 0 mm SCT
22:45 11.7 °C 10.2 °C 1010 hPa Calm     91% 0 mm SCT
23:00 11.7 °C 10.2 °C 1010 hPa Calm     91% 0 mm SCT
23:15 11.7 °C 10.2 °C 1010 hPa Calm     91% 0 mm SCT
23:30 11.7 °C 10.2 °C 1010 hPa Calm     91% 0 mm SCT
23:45 11.7 °C 10.2 °C 1010 hPa Calm     91% 0 mm SCT
Piedmont Bend
Compliments of Weather Underground - 2 mb